Time;durP1;ratioP1;P1;durP2;ratioP2;P2;SDS_P1;SDS_P2;PMS_P1;PMS_P2;Temp;Humidity;BMP_temperature;BMP_pressure;BME280_temperature;BME280_humidity;BME280_pressure;Samples;Min_cycle;Max_cycle;Signal;HPM_P1;HPM_P2
2021/04/23 00:01:36;;;;;;;58.95;31.15;;;;;;;9.23;80.74;99333.27;117236;1209;22979;-65
2021/04/23 00:04:05;;;;;;;56.63;31.67;;;;;;;9.25;80.30;99322.13;117208;1209;22967;-65
2021/04/23 00:06:33;;;;;;;57.45;32.20;;;;;;;9.23;80.54;99320.48;117202;1214;22961;-65
2021/04/23 00:09:15;;;;;;;64.10;32.80;;;;;;;9.20;80.52;99323.73;117158;1209;24094;-65
2021/04/23 00:11:51;;;;;;;53.80;33.83;;;;;;;9.20;80.64;99318.29;117244;1212;23554;-65
2021/04/23 00:14:28;;;;;;;56.30;30.90;;;;;;;9.20;81.22;99321.01;117237;1215;23089;-65
2021/04/23 00:16:55;;;;;;;;;;;;;;;9.23;80.68;99333.27;117235;1217;22877;-65
2021/04/23 00:19:24;;;;;;;50.15;31.28;;;;;;;9.24;81.21;99324.02;117213;1209;21531;-65
2021/04/23 00:21:52;;;;;;;51.95;33.50;;;;;;;9.27;81.24;99330.84;117218;1214;22910;-65
2021/04/23 00:24:20;;;;;;;57.85;32.15;;;;;;;9.28;80.85;99336.03;117200;1207;22934;-65
2021/04/23 00:26:48;;;;;;;52.05;30.30;;;;;;;9.29;80.83;99332.24;117246;1209;22893;-65
2021/04/23 00:29:15;;;;;;;52.85;32.25;;;;;;;9.30;81.11;99336.61;117249;1209;22835;-65
2021/04/23 00:31:49;;;;;;;56.10;33.30;;;;;;;9.31;80.82;99342.87;117146;1209;23870;-65
2021/04/23 00:34:17;;;;;;;50.63;32.67;;;;;;;9.32;81.09;99350.77;117330;1212;22857;-65
2021/04/23 00:36:45;;;;;;;52.37;31.67;;;;;;;9.33;81.04;99352.42;117393;1209;22937;-66
2021/04/23 00:39:12;;;;;;;61.15;34.00;;;;;;;9.37;81.15;99360.89;117409;1208;23713;-65
2021/04/23 00:41:40;;;;;;;54.87;32.57;;;;;;;9.37;80.98;99369.88;117248;1208;22817;-66
2021/04/23 00:44:08;;;;;;;49.75;32.20;;;;;;;9.40;80.74;99379.39;117374;1209;23516;-66
2021/04/23 00:46:37;;;;;;;52.50;33.25;;;;;;;9.41;80.62;99378.33;117390;1209;22933;-66
2021/04/23 00:49:06;;;;;;;44.15;30.10;;;;;;;9.43;80.61;99381.62;117394;1209;22823;-65
2021/04/23 00:51:47;;;;;;;48.43;30.13;;;;;;;9.42;80.62;99378.08;117380;1209;22799;-65
2021/04/23 00:54:15;;;;;;;44.85;29.05;;;;;;;9.43;80.57;99376.18;117223;1212;23957;-65
2021/04/23 00:56:42;;;;;;;45.20;29.30;;;;;;;9.44;80.95;99378.65;114692;1209;23150;-65
2021/04/23 00:59:11;;;;;;;41.77;27.70;;;;;;;9.44;80.55;99375.10;117365;1208;23072;-65
2021/04/23 01:01:41;;;;;;;38.75;25.00;;;;;;;9.46;80.54;99372.95;117369;1209;22899;-64
2021/04/23 01:04:11;;;;;;;31.77;22.57;;;;;;;9.47;80.63;99374.60;117355;1209;22895;-64
2021/04/23 01:06:39;;;;;;;31.40;21.27;;;;;;;9.48;80.73;99355.31;117357;1209;23511;-65
2021/04/23 01:09:15;;;;;;;29.23;19.40;;;;;;;9.49;80.60;99370.56;117314;1209;22850;-64
2021/04/23 01:11:43;;;;;;;26.63;19.93;;;;;;;9.50;80.50;99364.05;117331;1209;22878;-65
2021/04/23 01:14:10;;;;;;;27.00;18.40;;;;;;;9.50;80.51;99364.05;117450;1208;22805;-65
2021/04/23 01:16:38;;;;;;;28.40;17.60;;;;;;;9.51;80.62;99365.69;117311;1208;22859;-64
2021/04/23 01:19:07;;;;;;;20.35;16.30;;;;;;;9.52;80.29;99367.30;117345;1209;22967;-65
2021/04/23 01:21:51;;;;;;;37.55;24.50;;;;;;;9.52;80.22;99363.80;117425;1208;22860;-65
2021/04/23 01:24:19;;;;;;;41.70;26.40;;;;;;;9.54;80.24;99361.61;117425;1208;22844;-65
2021/04/23 01:26:51;;;;;;;35.07;24.37;;;;;;;9.54;80.22;99364.34;117388;1209;23763;-65
2021/04/23 01:29:20;;;;;;;21.73;18.37;;;;;;;9.55;80.50;99360.54;117315;1208;22858;-65
2021/04/23 01:31:51;;;;;;;21.73;16.27;;;;;;;9.54;80.21;99365.16;117375;1212;22907;-64
2021/04/23 01:34:29;;;;;;;20.53;14.90;;;;;;;9.53;80.33;99360.79;117155;1212;22931;-65
2021/04/23 01:36:58;;;;;;;18.10;13.45;;;;;;;9.55;80.15;99363.26;114381;1209;23212;-64
2021/04/23 01:39:26;;;;;;;16.85;13.30;;;;;;;9.51;80.43;99360.25;117315;1209;22874;-64
2021/04/23 01:41:54;;;;;;;20.20;14.13;;;;;;;9.53;80.20;99362.69;117426;1209;23476;-65
2021/04/23 01:44:22;;;;;;;17.70;14.25;;;;;;;9.51;80.04;99360.25;117381;1209;22874;-65
2021/04/23 01:46:52;;;;;;;17.50;14.30;;;;;;;9.51;79.83;99362.97;117339;1209;23738;-65
2021/04/23 01:49:20;;;;;;;17.05;13.70;;;;;;;9.50;79.85;99357.78;117216;1209;23051;-65
2021/04/23 01:51:52;;;;;;;15.93;13.17;;;;;;;9.47;80.38;99359.11;117427;1211;22852;-65
2021/04/23 01:54:19;;;;;;;18.30;14.30;;;;;;;9.42;79.93;99363.66;117394;1209;23005;-65
2021/04/23 01:56:48;;;;;;;16.17;13.47;;;;;;;9.39;80.30;99367.70;117402;1208;22981;-65
2021/04/23 01:59:16;;;;;;;19.15;13.55;;;;;;;9.38;80.56;99374.21;117411;1209;22888;-65
2021/04/23 02:01:43;;;;;;;16.25;12.80;;;;;;;9.39;80.79;99381.30;117295;1212;23108;-65
2021/04/23 02:04:12;;;;;;;16.35;13.60;;;;;;;9.39;80.88;99385.91;117182;1209;22921;-65
2021/04/23 02:06:59;;;;;;;15.35;11.50;;;;;;;9.39;80.29;99388.63;117355;1212;22973;-65
2021/04/23 02:09:27;;;;;;;16.45;13.50;;;;;;;9.39;80.85;99388.63;117222;1208;23849;-64
2021/04/23 02:11:55;;;;;;;23.07;13.93;;;;;;;9.37;80.79;99388.09;117333;1209;23027;-66
2021/04/23 02:14:23;;;;;;;16.57;13.47;;;;;;;9.34;80.65;99394.84;117321;1209;22953;-65
2021/04/23 02:16:51;;;;;;;16.33;12.70;;;;;;;9.32;81.04;99407.87;117365;1208;22794;-65
2021/04/23 02:19:19;;;;;;;15.00;10.55;;;;;;;9.19;78.68;99421.83;117375;1209;22974;-65
2021/04/23 02:21:47;;;;;;;14.00;8.90;;;;;;;8.89;74.36;99422.22;117251;1209;23462;-66
2021/04/23 02:24:15;;;;;;;10.50;7.00;;;;;;;8.50;72.80;99430.33;117216;1212;22922;-65
2021/04/23 02:26:42;;;;;;;13.15;6.30;;;;;;;8.18;73.48;99425.66;117219;1208;22866;-65
2021/04/23 02:29:11;;;;;;;15.20;5.65;;;;;;;7.87;73.82;99435.13;117283;1209;22864;-65
2021/04/23 02:31:39;;;;;;;9.80;5.10;;;;;;;7.61;73.87;99434.64;117264;1209;22833;-65
2021/04/23 02:34:09;;;;;;;6.55;4.75;;;;;;;7.36;74.46;99458.48;117369;1210;22958;-65
2021/04/23 02:36:37;;;;;;;7.27;5.47;;;;;;;7.18;74.84;99456.77;117483;1208;22907;-65
2021/04/23 02:39:06;;;;;;;11.40;6.15;;;;;;;7.06;75.03;99466.80;117507;1211;22806;-64
2021/04/23 02:41:33;;;;;;;10.77;5.73;;;;;;;6.98;74.85;99467.96;117263;1209;22903;-65
2021/04/23 02:44:01;;;;;;;9.40;5.35;;;;;;;6.91;74.80;99461.86;117573;1211;22819;-65
2021/04/23 02:46:28;;;;;;;8.50;4.90;;;;;;;6.87;75.08;99478.80;117538;1208;22971;-65
2021/04/23 02:48:56;;;;;;;9.60;5.10;;;;;;;6.85;75.43;99483.63;117524;1208;22840;-65
2021/04/23 02:51:27;;;;;;;10.20;5.55;;;;;;;6.84;75.62;99482.80;117534;1208;22873;-65
2021/04/23 02:53:56;;;;;;;6.40;5.20;;;;;;;6.77;73.80;99500.23;117519;1212;22911;-65
2021/04/23 02:56:24;;;;;;;8.50;5.50;;;;;;;6.67;74.34;99508.91;117473;1212;22949;-65
2021/04/23 02:58:52;;;;;;;7.90;4.70;;;;;;;6.58;74.82;99503.02;117317;1212;23051;-65
2021/04/23 03:01:21;;;;;;;9.50;5.53;;;;;;;6.55;74.26;99505.36;117353;1208;22937;-65
2021/04/23 03:03:53;;;;;;;9.05;4.80;;;;;;;6.48;74.72;99510.06;117494;1209;22975;-64
2021/04/23 03:06:21;;;;;;;12.00;5.50;;;;;;;6.43;74.74;99523.45;117734;1210;22825;-65
2021/04/23 03:08:49;;;;;;;7.70;4.70;;;;;;;6.39;74.76;99536.61;117677;1206;22926;-65
2021/04/23 03:11:21;;;;;;;11.10;5.10;;;;;;;6.34;75.18;99531.91;117762;1206;22914;-65
2021/04/23 03:13:51;;;;;;;8.80;4.65;;;;;;;6.28;74.92;99521.17;117761;1206;23058;-65
2021/04/23 03:16:19;;;;;;;8.10;4.70;;;;;;;6.25;75.25;99533.27;117681;1206;22925;-65
2021/04/23 03:18:47;;;;;;;10.20;4.70;;;;;;;6.21;75.04;99525.83;117782;1209;22987;-65
2021/04/23 03:21:16;;;;;;;11.20;5.03;;;;;;;6.20;75.04;99538.56;117610;1206;22849;-65
2021/04/23 03:23:44;;;;;;;9.37;5.23;;;;;;;6.19;76.05;99538.79;117692;1206;22900;-65
2021/04/23 03:26:12;;;;;;;10.40;4.60;;;;;;;6.19;75.25;99555.02;117512;1208;22808;-65
2021/04/23 03:28:40;;;;;;;12.17;5.40;;;;;;;6.13;75.22;99551.34;117790;1211;23224;-65
2021/04/23 03:31:08;;;;;;;11.45;4.00;;;;;;;6.03;75.33;99546.48;117724;1206;22934;-65
2021/04/23 03:33:36;;;;;;;6.10;4.75;;;;;;;5.96;74.88;99551.13;117570;1208;22831;-65
2021/04/23 03:36:04;;;;;;;8.07;4.43;;;;;;;5.87;75.56;99552.48;117742;1211;22978;-65
2021/04/23 03:38:33;;;;;;;8.90;4.20;;;;;;;5.81;75.81;99560.66;117664;1206;22959;-65
2021/04/23 03:41:04;;;;;;;6.25;4.10;;;;;;;5.75;76.23;99558.88;117500;1208;22806;-65
2021/04/23 03:43:32;;;;;;;5.43;3.37;;;;;;;5.74;75.64;99565.33;117360;1207;22874;-65
2021/04/23 03:45:59;;;;;;;6.97;4.03;;;;;;;5.70;76.13;99575.75;117768;1211;23005;-65
2021/04/23 03:48:27;;;;;;;7.85;4.30;;;;;;;5.66;76.32;99574.55;117780;1206;22899;-65
2021/04/23 03:50:55;;;;;;;10.25;4.00;;;;;;;5.60;77.03;99573.59;117699;1206;23755;-65
2021/04/23 03:53:22;;;;;;;5.60;3.65;;;;;;;5.56;76.47;99576.95;117695;1206;23679;-65
2021/04/23 03:55:51;;;;;;;7.25;3.85;;;;;;;5.43;75.78;99575.22;117846;1206;22803;-65
2021/04/23 03:58:21;;;;;;;8.25;4.25;;;;;;;5.27;76.72;99582.02;117699;1206;22931;-65
2021/04/23 04:00:50;;;;;;;8.05;4.25;;;;;;;5.20;77.38;99577.70;117703;1206;22830;-66
2021/04/23 04:03:18;;;;;;;7.30;4.10;;;;;;;5.10;78.12;99577.39;117544;1207;23661;-66
2021/04/23 04:05:46;;;;;;;7.70;4.60;;;;;;;5.03;78.33;99582.87;117504;1208;22988;-66
2021/04/23 04:08:14;;;;;;;11.30;5.00;;;;;;;4.97;78.76;99578.34;117805;1211;22965;-68
2021/04/23 04:10:41;;;;;;;10.37;5.67;;;;;;;4.94;79.00;99581.47;117794;1206;22898;-67
2021/04/23 04:13:09;;;;;;;8.55;5.10;;;;;;;4.94;79.67;99585.00;117742;1206;22916;-64
2021/04/23 04:15:37;;;;;;;11.43;6.83;;;;;;;4.94;79.86;99589.56;117485;1208;22860;-64
2021/04/23 04:18:06;;;;;;;9.10;5.40;;;;;;;4.92;80.28;99589.78;117542;1211;22945;-64
2021/04/23 04:20:36;;;;;;;10.60;5.67;;;;;;;4.93;80.74;99586.04;117736;1210;22887;-64
2021/04/23 04:23:08;;;;;;;9.95;5.90;;;;;;;4.94;81.10;99590.39;117732;1206;22904;-65
2021/04/23 04:25:37;;;;;;;12.57;6.80;;;;;;;4.95;81.08;99580.42;117713;1206;23711;-65
2021/04/23 04:28:05;;;;;;;6.97;4.37;;;;;;;4.96;81.29;99572.11;117721;1206;23967;-65
2021/04/23 04:30:33;;;;;;;7.50;4.90;;;;;;;4.98;80.81;99590.79;117741;1212;22929;-65
2021/04/23 04:33:01;;;;;;;8.85;5.40;;;;;;;4.97;80.68;99591.83;117737;1206;22894;-65
2021/04/23 04:35:29;;;;;;;9.00;5.60;;;;;;;4.97;80.88;99586.44;117737;1206;23039;-65
2021/04/23 04:37:57;;;;;;;7.97;5.17;;;;;;;4.96;81.34;99592.88;117734;1206;24043;-65
2021/04/23 04:40:25;;;;;;;10.20;5.60;;;;;;;4.95;81.58;99588.52;117685;1206;22897;-65
2021/04/23 04:42:54;;;;;;;8.53;5.47;;;;;;;4.97;81.41;99595.36;117722;1206;23817;-65
2021/04/23 04:45:22;;;;;;;7.30;5.30;;;;;;;5.01;81.98;99592.23;117394;1206;24080;-64
2021/04/23 04:47:50;;;;;;;11.05;5.30;;;;;;;5.02;81.51;99596.58;117772;1206;23026;-64
2021/04/23 04:50:28;;;;;;;11.50;5.10;;;;;;;5.05;81.58;99602.34;117705;1206;23082;-64
2021/04/23 04:52:55;;;;;;;9.63;5.48;;;;;;;5.09;81.54;99603.56;117537;1206;23863;-64
2021/04/23 04:55:28;;;;;;;8.00;4.70;;;;;;;5.11;81.17;99596.08;117749;1212;22960;-64
2021/04/23 04:57:59;;;;;;;8.00;5.20;;;;;;;5.17;81.53;99605.18;117763;1206;23693;-64
2021/04/23 05:00:29;;;;;;;9.85;5.30;;;;;;;5.19;81.05;99612.02;117742;1206;23659;-64
2021/04/23 05:02:56;;;;;;;7.90;5.50;;;;;;;5.15;81.17;99605.40;117385;1207;22899;-64
2021/04/23 05:05:25;;;;;;;10.15;5.65;;;;;;;5.15;81.07;99607.27;117789;1211;22935;-64
2021/04/23 05:07:53;;;;;;;9.00;5.30;;;;;;;5.16;81.34;99612.45;117730;1209;23680;-64
2021/04/23 05:10:21;;;;;;;9.43;5.37;;;;;;;5.20;81.09;99610.95;117696;1210;22845;-64
2021/04/23 05:12:48;;;;;;;8.55;5.05;;;;;;;5.22;81.22;99608.03;117706;1206;22946;-64
2021/04/23 05:15:17;;;;;;;8.55;5.25;;;;;;;5.23;81.19;99610.52;117764;1206;22809;-64
2021/04/23 05:17:45;;;;;;;14.60;5.80;;;;;;;5.29;81.08;99601.53;117770;1206;23006;-64
2021/04/23 05:20:13;;;;;;;9.47;5.43;;;;;;;5.35;80.85;99597.09;117772;1211;22849;-65
2021/04/23 05:22:41;;;;;;;7.43;4.50;;;;;;;5.33;80.98;99600.05;117704;1206;23850;-65
2021/04/23 05:25:11;;;;;;;10.37;4.70;;;;;;;5.37;81.19;99596.88;117735;1206;22970;-65
2021/04/23 05:27:38;;;;;;;7.40;4.20;;;;;;;5.41;81.04;99598.92;117521;1212;23341;-67
2021/04/23 05:30:08;;;;;;;10.15;4.80;;;;;;;5.47;80.98;99600.75;117738;1210;22921;-67
2021/04/23 05:32:36;;;;;;;9.10;5.00;;;;;;;5.52;80.75;99600.89;117360;1208;23011;-67
2021/04/23 05:35:05;;;;;;;7.90;4.50;;;;;;;5.57;79.88;99601.05;117753;1206;22798;-67
2021/04/23 05:37:33;;;;;;;7.67;4.30;;;;;;;5.60;80.03;99594.38;117536;1207;22869;-67
2021/04/23 05:40:01;;;;;;;10.13;4.07;;;;;;;5.62;79.76;99603.09;117547;1211;22870;-67
2021/04/23 05:42:30;;;;;;;8.25;4.00;;;;;;;5.63;79.50;99594.73;117538;1206;23046;-67
2021/04/23 05:44:58;;;;;;;8.90;4.50;;;;;;;5.64;78.54;99601.80;117647;1206;22813;-67
2021/04/23 05:47:25;;;;;;;10.25;4.90;;;;;;;5.62;79.19;99609.33;113654;1209;23125;-64
2021/04/23 05:49:53;;;;;;;7.95;4.95;;;;;;;5.62;78.82;99619.31;117508;1207;23017;-65
2021/04/23 05:52:21;;;;;;;9.23;4.03;;;;;;;5.66;78.25;99615.09;117465;1207;22876;-65
2021/04/23 05:54:48;;;;;;;10.20;4.50;;;;;;;5.67;78.67;99616.74;117789;1212;22946;-64
2021/04/23 05:57:16;;;;;;;8.75;3.95;;;;;;;5.71;78.59;99609.02;117585;1208;22925;-63
2021/04/23 05:59:43;;;;;;;5.10;3.55;;;;;;;5.80;78.06;99619.30;117695;1206;22839;-63
2021/04/23 06:02:11;;;;;;;9.23;3.90;;;;;;;5.86;78.41;99615.72;117576;1206;22957;-65
2021/04/23 06:04:39;;;;;;;10.70;4.35;;;;;;;5.92;77.47;99617.53;117725;1211;22976;-64
2021/04/23 06:07:06;;;;;;;5.37;3.60;;;;;;;5.94;76.66;99623.55;117648;1212;22897;-64
2021/04/23 06:09:34;;;;;;;7.80;4.15;;;;;;;5.96;77.13;99620.62;117706;1206;23038;-64
2021/04/23 06:12:02;;;;;;;8.90;3.60;;;;;;;6.00;77.81;99621.83;117764;1206;22814;-65
2021/04/23 06:14:30;;;;;;;9.30;3.75;;;;;;;6.06;77.16;99622.81;117699;1211;22836;-63
2021/04/23 06:16:59;;;;;;;9.65;3.85;;;;;;;6.07;76.58;99613.62;114730;1206;28395;-66
2021/04/23 06:19:26;;;;;;;5.70;3.60;;;;;;;6.17;76.80;99625.58;113641;1209;23158;-67
2021/04/23 06:21:55;;;;;;;6.65;4.05;;;;;;;6.22;75.56;99630.29;117539;1206;23961;-67
2021/04/23 06:24:23;;;;;;;6.90;3.97;;;;;;;6.25;75.39;99629.84;117630;1206;23612;-68
2021/04/23 06:26:50;;;;;;;10.67;5.03;;;;;;;6.27;76.40;99628.56;117634;1206;23864;-68
2021/04/23 06:29:18;;;;;;;9.40;5.60;;;;;;;6.38;76.12;99630.50;117654;1209;23202;-68
2021/04/23 06:31:46;;;;;;;9.50;5.00;;;;;;;6.50;75.81;99627.02;117357;1207;23011;-67
2021/04/23 06:34:13;;;;;;;9.50;4.90;;;;;;;6.52;75.55;99627.61;117731;1206;22956;-67
2021/04/23 06:36:41;;;;;;;14.00;4.80;;;;;;;6.54;74.50;99625.51;117750;1206;22980;-67
2021/04/23 06:39:14;;;;;;;9.90;5.00;;;;;;;6.58;74.50;99634.83;117664;1206;22815;-67
2021/04/23 06:41:42;;;;;;;10.57;6.03;;;;;;;6.61;74.51;99631.67;117678;1206;22983;-68
2021/04/23 06:44:10;;;;;;;14.75;6.35;;;;;;;6.63;74.67;99635.81;117737;1206;22976;-68
2021/04/23 06:46:37;;;;;;;12.55;5.50;;;;;;;6.67;74.21;99636.16;117676;1206;22913;-68
2021/04/23 06:49:08;;;;;;;8.83;4.83;;;;;;;6.74;74.17;99637.72;117756;1206;22941;-68
2021/04/23 06:51:36;;;;;;;8.27;5.37;;;;;;;6.80;73.96;99629.72;117387;1209;22910;-69
2021/04/23 06:54:05;;;;;;;11.47;5.67;;;;;;;6.85;74.15;99636.10;117578;1206;23009;-69
2021/04/23 06:56:33;;;;;;;15.00;5.95;;;;;;;6.89;73.69;99639.19;117551;1210;22920;-69
2021/04/23 06:59:01;;;;;;;27.10;7.33;;;;;;;6.92;73.45;99634.14;117770;1206;22870;-69
2021/04/23 07:01:28;;;;;;;12.63;6.63;;;;;;;6.93;73.20;99637.64;117697;1206;24048;-69
2021/04/23 07:03:56;;;;;;;11.30;6.10;;;;;;;6.98;73.56;99627.77;117724;1206;22846;-69
2021/04/23 07:06:23;;;;;;;12.05;6.90;;;;;;;7.08;73.33;99629.91;117746;1211;22839;-69
2021/04/23 07:08:51;;;;;;;14.85;6.60;;;;;;;7.17;73.70;99638.55;117734;1206;22963;-68
2021/04/23 07:11:19;;;;;;;14.65;7.60;;;;;;;7.28;73.42;99635.02;117741;1206;22895;-66
2021/04/23 07:13:46;;;;;;;11.40;7.10;;;;;;;7.37;73.92;99639.02;117712;1206;22881;-66
2021/04/23 07:16:14;;;;;;;12.50;6.50;;;;;;;7.41;72.42;99649.17;117806;1206;22989;-67
2021/04/23 07:18:43;;;;;;;8.25;5.70;;;;;;;7.45;72.40;99653.08;117613;1210;23885;-68
2021/04/23 07:21:12;;;;;;;8.80;5.10;;;;;;;7.51;71.68;99648.58;117690;1206;23469;-67
2021/04/23 07:23:42;;;;;;;8.65;4.60;;;;;;;7.53;71.04;99648.34;117745;1206;22948;-67
2021/04/23 07:26:10;;;;;;;8.65;4.20;;;;;;;7.55;71.21;99648.94;117697;1206;22979;-68
2021/04/23 07:28:38;;;;;;;14.10;5.10;;;;;;;7.61;72.13;99646.13;117736;1211;22943;-68
2021/04/23 07:31:06;;;;;;;15.20;7.45;;;;;;;7.72;72.24;99650.72;117707;1206;24114;-67
2021/04/23 07:33:33;;;;;;;16.75;7.40;;;;;;;7.83;72.59;99648.23;117518;1206;23065;-67
2021/04/23 07:36:01;;;;;;;17.20;8.75;;;;;;;7.95;71.84;99643.61;117740;1206;23029;-67
2021/04/23 07:38:30;;;;;;;10.95;6.45;;;;;;;8.06;71.23;99640.91;117736;1212;23041;-68
2021/04/23 07:41:00;;;;;;;9.60;4.93;;;;;;;8.13;70.59;99638.05;117693;1206;22938;-68
2021/04/23 07:43:27;;;;;;;12.70;4.75;;;;;;;8.19;70.75;99636.28;117645;1206;24700;-68
2021/04/23 07:46:00;;;;;;;9.20;5.27;;;;;;;8.25;70.42;99633.41;117730;1206;22858;-67
2021/04/23 07:48:28;;;;;;;8.15;4.50;;;;;;;8.30;69.41;99636.24;117500;1212;22967;-67
2021/04/23 07:50:57;;;;;;;7.45;4.50;;;;;;;8.35;69.76;99635.56;117760;1211;23607;-68
2021/04/23 07:53:24;;;;;;;5.05;3.50;;;;;;;8.41;69.80;99634.58;117711;1206;22799;-68
2021/04/23 07:55:52;;;;;;;8.65;4.65;;;;;;;8.46;69.54;99632.80;117582;1206;22917;-67
2021/04/23 07:58:19;;;;;;;11.75;3.90;;;;;;;8.46;68.69;99643.66;117446;1211;22874;-67
2021/04/23 08:00:47;;;;;;;7.45;4.15;;;;;;;8.46;69.29;99638.23;117788;1212;22921;-68
2021/04/23 08:03:14;;;;;;;7.75;4.45;;;;;;;8.51;69.35;99648.38;117684;1206;22987;-69
2021/04/23 08:05:43;;;;;;;9.80;4.25;;;;;;;8.55;68.74;99643.27;117707;1206;23580;-69
2021/04/23 08:08:10;;;;;;;8.80;4.95;;;;;;;8.57;68.55;99646.58;117391;1209;22989;-69
2021/04/23 08:10:39;;;;;;;16.00;4.60;;;;;;;8.57;68.94;99650.11;117373;1209;23022;-63
2021/04/23 08:13:08;;;;;;;9.17;4.63;;;;;;;8.62;68.38;99636.64;117382;1208;22961;-63
2021/04/23 08:15:55;;;;;;;8.40;4.67;;;;;;;8.62;67.36;99639.36;117329;1208;23176;-63
2021/04/23 08:18:25;;;;;;;8.10;4.50;;;;;;;8.59;67.95;99642.55;117409;1208;22889;-63
2021/04/23 08:20:52;;;;;;;6.30;3.70;;;;;;;8.61;67.60;99640.42;117386;1208;22855;-63
2021/04/23 08:23:20;;;;;;;10.53;5.07;;;;;;;8.68;67.44;99635.66;117380;1209;23001;-63
2021/04/23 08:25:52;;;;;;;8.27;5.40;;;;;;;8.76;67.70;99643.44;117347;1208;22976;-63
2021/04/23 08:28:20;;;;;;;9.95;4.95;;;;;;;8.85;67.65;99641.13;117325;1208;22929;-63
2021/04/23 08:30:49;;;;;;;7.20;4.30;;;;;;;8.93;67.05;99637.22;117410;1209;22904;-63
2021/04/23 08:33:17;;;;;;;8.30;4.50;;;;;;;9.01;66.89;99643.06;117432;1209;22998;-63
2021/04/23 08:35:46;;;;;;;7.60;4.60;;;;;;;9.09;67.15;99647.29;117243;1208;22846;-63
2021/04/23 08:38:15;;;;;;;12.05;5.35;;;;;;;9.15;67.10;99644.40;117173;1209;22885;-63
2021/04/23 08:40:43;;;;;;;15.40;10.75;;;;;;;9.23;66.82;99641.26;117445;1209;22928;-63
2021/04/23 08:43:11;;;;;;;36.43;27.50;;;;;;;9.29;66.01;99642.19;117702;1206;22866;-63
2021/04/23 08:45:38;;;;;;;119.90;99.00;;;;;;;9.34;65.76;99647.72;116871;1209;24744;-63
2021/04/23 08:48:08;;;;;;;44.10;33.47;;;;;;;9.36;65.56;99640.14;113368;1206;23278;-63
2021/04/23 08:50:36;;;;;;;12.60;8.30;;;;;;;9.42;65.68;99643.75;117682;1206;22976;-64
2021/04/23 08:53:05;;;;;;;54.25;37.50;;;;;;;9.48;65.22;99651.75;117485;1206;23016;-64
2021/04/23 08:55:33;;;;;;;26.05;17.55;;;;;;;9.50;64.93;99648.79;117785;1210;23669;-63
2021/04/23 08:58:16;;;;;;;19.10;12.60;;;;;;;9.44;64.44;99638.89;117764;1206;22819;-61
2021/04/23 09:00:44;;;;;;;27.45;11.55;;;;;;;9.47;64.03;99641.95;117652;1206;22839;-64
2021/04/23 09:03:24;;;;;;;34.43;17.23;;;;;;;9.47;63.93;99628.34;117720;1206;22873;-64
2021/04/23 09:06:15;;;;;;;14.18;7.03;;;;;;;9.46;64.59;99632.14;117384;1204;22858;-62
2021/04/23 09:09:07;;;;;;;6.65;4.55;;;;;;;9.53;64.31;99638.22;117683;1206;22912;-64
2021/04/23 09:11:42;;;;;;;8.97;4.13;;;;;;;9.61;64.34;99625.28;117731;1211;22997;-62
2021/04/23 09:14:19;;;;;;;8.80;4.23;;;;;;;9.67;64.39;99632.43;117617;1206;22852;-66
2021/04/23 09:16:56;;;;;;;30.80;12.25;;;;;;;9.72;62.97;99633.34;117697;1209;22889;-63
2021/04/23 09:19:34;;;;;;;10.70;5.18;;;;;;;9.76;63.69;99647.28;117607;1208;22822;-63
2021/04/23 09:22:06;;;;;;;7.63;4.20;;;;;;;9.82;62.75;99641.64;117569;1208;22947;-62
2021/04/23 09:24:38;;;;;;;7.55;4.10;;;;;;;9.87;62.38;99635.45;117677;1206;23009;-62
2021/04/23 09:27:29;;;;;;;12.60;5.67;;;;;;;9.96;61.68;99642.11;117585;1206;23016;-63
2021/04/23 09:29:59;;;;;;;9.80;4.57;;;;;;;10.01;60.28;99642.19;117505;1208;22861;-62
2021/04/23 09:32:30;;;;;;;8.33;4.60;;;;;;;10.02;59.63;99641.12;117678;1206;22998;-64
2021/04/23 09:35:02;;;;;;;12.58;5.88;;;;;;;9.96;60.06;99636.66;117745;1206;22912;-64
2021/04/23 09:37:54;;;;;;;11.40;5.80;;;;;;;9.96;60.58;99639.38;117722;1205;23001;-64
2021/04/23 09:40:25;;;;;;;8.20;5.30;;;;;;;10.03;59.59;99639.22;117749;1211;22935;-64
2021/04/23 09:43:01;;;;;;;9.20;4.80;;;;;;;10.08;57.90;99642.84;117618;1206;23849;-63
2021/04/23 09:45:35;;;;;;;9.90;5.80;;;;;;;10.07;57.37;99643.92;117673;1206;22948;-63
2021/04/23 09:48:03;;;;;;;10.50;4.77;;;;;;;10.03;56.19;99640.05;117699;1206;23060;-62
2021/04/23 09:50:34;;;;;;;9.07;5.43;;;;;;;9.98;57.39;99639.96;117796;1211;23018;-63
2021/04/23 09:53:02;;;;;;;14.10;7.10;;;;;;;9.98;57.63;99637.23;117710;1206;22900;-63
2021/04/23 09:55:31;;;;;;;16.07;6.83;;;;;;;10.02;58.30;99635.67;117708;1206;22823;-63
2021/04/23 09:58:01;;;;;;;11.10;5.57;;;;;;;10.06;58.81;99623.22;117675;1206;22848;-63
2021/04/23 10:00:31;;;;;;;12.35;4.10;;;;;;;10.12;58.67;99624.91;117716;1206;23628;-63
2021/04/23 10:03:00;;;;;;;9.20;5.00;;;;;;;10.17;57.06;99610.55;117711;1206;22933;-63
2021/04/23 10:05:42;;;;;;;14.85;8.75;;;;;;;10.17;53.88;99608.66;117730;1206;24174;-63
2021/04/23 10:08:23;;;;;;;11.45;5.75;;;;;;;10.13;54.58;99610.22;117692;1206;22946;-62
2021/04/23 10:10:57;;;;;;;8.03;5.17;;;;;;;10.15;55.23;99623.59;117808;1211;22804;-62
2021/04/23 10:13:32;;;;;;;11.27;4.30;;;;;;;10.17;53.30;99618.72;117647;1206;22975;-62
2021/04/23 10:16:00;;;;;;;10.10;4.40;;;;;;;10.14;53.60;99613.77;117782;1212;22912;-62
2021/04/23 10:18:28;;;;;;;9.85;5.00;;;;;;;10.13;54.29;99609.40;117656;1206;22979;-62
2021/04/23 10:20:56;;;;;;;5.20;3.00;;;;;;;10.13;53.55;99604.78;117680;1206;22838;-62
2021/04/23 10:25:06;;;;;;;8.50;4.47;;;;;;;10.12;53.47;99602.30;113012;1205;23128;-61
2021/04/23 10:27:36;;;;;;;15.80;9.40;;;;;;;10.11;53.20;99606.92;117199;1209;22849;-63
2021/04/23 10:30:09;;;;;;;11.70;5.90;;;;;;;10.11;52.01;99603.38;117692;1206;22880;-63
2021/04/23 10:32:51;;;;;;;11.00;4.80;;;;;;;10.12;53.29;99599.58;117714;1206;23126;-63
2021/04/23 10:35:19;;;;;;;4.63;2.77;;;;;;;10.17;53.51;99600.48;117669;1206;22906;-62
2021/04/23 10:37:48;;;;;;;9.05;3.70;;;;;;;10.25;53.45;99594.61;117670;1206;22932;-62
2021/04/23 10:40:20;;;;;;;8.75;4.80;;;;;;;10.33;51.77;99597.98;117558;1205;23440;-63
2021/04/23 10:43:04;;;;;;;9.70;5.90;;;;;;;10.32;51.18;99597.16;117665;1206;22924;-63
2021/04/23 10:45:45;;;;;;;10.37;5.17;;;;;;;10.26;50.91;99588.09;117638;1206;22994;-63
2021/04/23 10:48:15;;;;;;;7.10;3.43;;;;;;;10.22;52.33;99586.97;117656;1206;22883;-63
2021/04/23 10:50:47;;;;;;;8.93;4.53;;;;;;;10.26;52.77;99592.71;117642;1206;23624;-62
2021/04/23 10:53:21;;;;;;;7.50;3.80;;;;;;;10.30;53.08;99603.92;117669;1204;22890;-63
2021/04/23 10:55:51;;;;;;;8.60;3.05;;;;;;;10.35;51.86;99602.09;117677;1206;22922;-63
2021/04/23 10:58:29;;;;;;;10.17;6.97;;;;;;;10.32;51.90;99597.16;117561;1206;22972;-63
2021/04/23 11:00:58;;;;;;;6.10;4.00;;;;;;;10.28;51.99;99596.00;117711;1206;22784;-63
2021/04/23 11:03:38;;;;;;;9.60;4.03;;;;;;;10.29;53.09;99597.66;117790;1209;22960;-63
2021/04/23 11:06:15;;;;;;;12.55;5.10;;;;;;;10.31;53.30;99595.50;117672;1206;24062;-63
2021/04/23 11:09:02;;;;;;;7.43;4.07;;;;;;;10.32;53.56;99599.05;117765;1206;22894;-63
2021/04/23 11:11:30;;;;;;;8.07;4.03;;;;;;;10.34;53.67;99602.35;117661;1206;22907;-63
2021/04/23 11:14:27;;;;;;;11.37;5.33;;;;;;;10.34;53.90;99599.63;117729;1206;22990;-63
2021/04/23 11:17:18;;;;;;;12.28;4.23;;;;;;;10.33;54.44;99590.63;117599;1208;23728;-63
2021/04/23 11:19:50;;;;;;;13.35;4.05;;;;;;;10.34;55.17;99595.00;117685;1206;22921;-63
2021/04/23 11:22:28;;;;;;;7.77;4.20;;;;;;;10.40;55.32;99596.69;117464;1206;22834;-62
2021/04/23 11:24:59;;;;;;;9.70;3.83;;;;;;;10.45;55.34;99598.66;117700;1206;22896;-62
2021/04/23 11:27:27;;;;;;;11.60;4.30;;;;;;;10.53;55.39;99598.22;113654;1212;27900;-61
2021/04/23 11:29:56;;;;;;;9.53;3.70;;;;;;;10.60;55.74;99593.38;117433;1209;23679;-62
2021/04/23 11:32:25;;;;;;;8.80;3.70;;;;;;;10.68;54.94;99584.73;117649;1206;23825;-63
2021/04/23 11:34:56;;;;;;;8.80;3.27;;;;;;;10.75;54.67;99582.64;117672;1206;22840;-62
2021/04/23 11:37:30;;;;;;;9.83;3.97;;;;;;;10.83;54.04;99590.33;117423;1209;24031;-63
2021/04/23 11:39:57;;;;;;;6.18;2.90;;;;;;;10.88;53.14;99579.49;117496;1206;22860;-62
2021/04/23 11:42:26;;;;;;;9.30;3.53;;;;;;;10.93;52.81;99578.73;117474;1208;22903;-62